Time;durP1;ratioP1;P1;durP2;ratioP2;P2;SDS_P1;SDS_P2;PMS_P1;PMS_P2;Temp;Humidity;BMP_temperature;BMP_pressure;BME280_temperature;BME280_humidity;BME280_pressure;Samples;Min_cycle;Max_cycle;Signal;HPM_P1;HPM_P2
2024/04/09 00:00:32;;;;;;;22.30;6.70;;;21.90;85.40;;;;;;5463543;26;20231;-68
2024/04/09 00:02:57;;;;;;;15.20;6.90;;;21.90;85.60;;;;;;5464912;26;20700;-68
2024/04/09 00:05:26;;;;;;;25.07;7.13;;;21.80;85.90;;;;;;5451141;26;20575;-68
2024/04/09 00:07:51;;;;;;;19.90;6.77;;;21.80;86.70;;;;;;5464866;26;20227;-68
2024/04/09 00:10:19;;;;;;;18.10;6.80;;;21.80;85.80;;;;;;5456514;26;20523;-68
2024/04/09 00:12:46;;;;;;;21.17;6.47;;;21.80;86.10;;;;;;5466376;26;20223;-68
2024/04/09 00:15:12;;;;;;;17.90;5.87;;;21.70;86.40;;;;;;5469657;26;20464;-68
2024/04/09 00:17:56;;;;;;;21.43;6.57;;;21.70;86.50;;;;;;5463162;26;20528;-68
2024/04/09 00:20:24;;;;;;;26.17;6.77;;;21.70;86.80;;;;;;5465542;26;20271;-68
2024/04/09 00:22:58;;;;;;;29.93;8.53;;;21.70;87.00;;;;;;5458784;26;20531;-68
2024/04/09 00:25:24;;;;;;;23.80;6.33;;;21.70;87.40;;;;;;5458535;26;20809;-68
2024/04/09 00:27:53;;;;;;;20.27;6.50;;;21.60;87.20;;;;;;5462335;26;21023;-68
2024/04/09 00:30:22;;;;;;;23.53;6.60;;;21.60;87.10;;;;;;5469824;26;20972;-68
2024/04/09 00:32:51;;;;;;;22.33;6.20;;;21.60;87.00;;;;;;5463366;26;20518;-68
2024/04/09 00:35:17;;;;;;;25.93;8.03;;;21.60;86.90;;;;;;5472082;26;20549;-68
2024/04/09 00:37:43;;;;;;;22.83;7.80;;;21.50;86.70;;;;;;5462761;26;20471;-68
2024/04/09 00:40:09;;;;;;;32.00;8.90;;;21.50;87.00;;;;;;5462988;26;20464;-68
2024/04/09 00:42:38;;;;;;;19.80;6.57;;;21.50;86.90;;;;;;5470208;26;20638;-68
2024/04/09 00:45:07;;;;;;;18.20;6.00;;;21.50;87.00;;;;;;5466956;26;20464;-68
2024/04/09 00:47:36;;;;;;;22.10;7.70;;;21.50;87.00;;;;;;5466345;26;20520;-68
2024/04/09 00:50:04;;;;;;;17.93;6.47;;;21.50;87.00;;;;;;5458283;26;20465;-68
2024/04/09 00:52:31;;;;;;;18.27;6.80;;;21.50;87.00;;;;;;5470597;26;20512;-68
2024/04/09 00:54:58;;;;;;;32.60;7.20;;;21.50;87.00;;;;;;5450907;26;20463;-68
2024/04/09 00:57:25;;;;;;;26.73;7.43;;;21.50;86.90;;;;;;5468264;26;20531;-68
2024/04/09 00:59:52;;;;;;;19.77;8.23;;;21.50;87.10;;;;;;5464807;26;20902;-68
2024/04/09 01:02:21;;;;;;;19.83;6.43;;;21.50;87.10;;;;;;5462865;26;20477;-68
2024/04/09 01:04:46;;;;;;;24.07;7.30;;;21.50;86.40;;;;;;5461615;26;21215;-68
2024/04/09 01:07:12;;;;;;;13.53;6.17;;;21.50;86.20;;;;;;5461325;26;20465;-68
2024/04/09 01:09:41;;;;;;;24.40;7.60;;;21.40;86.20;;;;;;5464726;26;20227;-68
2024/04/09 01:12:07;;;;;;;15.27;6.70;;;21.40;86.40;;;;;;5465497;26;20328;-69
2024/04/09 01:14:32;;;;;;;26.77;8.60;;;21.40;87.00;;;;;;5464328;26;20467;-68
2024/04/09 01:16:58;;;;;;;23.33;7.90;;;21.40;87.60;;;;;;5431435;26;21071;-68
2024/04/09 01:19:24;;;;;;;31.83;7.70;;;21.40;87.70;;;;;;5461681;26;20610;-68
2024/04/09 01:21:53;;;;;;;20.43;6.20;;;21.40;87.70;;;;;;5465199;26;20738;-68
2024/04/09 01:24:19;;;;;;;14.53;5.87;;;21.40;87.70;;;;;;5461135;26;20314;-68
2024/04/09 01:26:45;;;;;;;22.37;6.60;;;21.40;87.90;;;;;;5468978;26;20895;-68
2024/04/09 01:29:11;;;;;;;21.37;6.97;;;21.40;88.10;;;;;;5462931;26;20294;-68
2024/04/09 01:31:38;;;;;;;15.13;6.80;;;21.40;88.10;;;;;;5465294;26;20605;-68
2024/04/09 01:34:04;;;;;;;22.63;9.30;;;21.40;88.50;;;;;;5452188;26;20528;-69
2024/04/09 01:36:31;;;;;;;22.00;6.90;;;21.40;88.70;;;;;;5468076;26;20525;-69
2024/04/09 01:38:57;;;;;;;20.93;7.10;;;21.40;88.50;;;;;;5459276;26;20303;-69
2024/04/09 01:41:23;;;;;;;19.67;7.40;;;21.30;89.90;;;;;;5458963;26;20472;-68
2024/04/09 01:43:48;;;;;;;25.77;7.10;;;21.20;89.00;;;;;;5462783;26;20680;-68
2024/04/09 01:46:14;;;;;;;19.43;6.60;;;21.10;89.20;;;;;;5467184;26;20238;-68
2024/04/09 01:48:42;;;;;;;23.67;7.17;;;21.10;89.10;;;;;;5463927;26;20239;-68
2024/04/09 01:51:09;;;;;;;17.00;6.90;;;21.10;89.50;;;;;;5461471;26;20251;-68
2024/04/09 01:53:34;;;;;;;23.70;6.50;;;21.00;89.30;;;;;;5457432;26;20487;-68
2024/04/09 01:56:01;;;;;;;27.97;7.80;;;21.00;89.60;;;;;;5429052;26;20567;-68
2024/04/09 01:58:28;;;;;;;20.97;8.63;;;21.00;89.60;;;;;;5458221;26;20321;-68
2024/04/09 02:00:54;;;;;;;28.10;7.07;;;21.00;89.60;;;;;;5462052;26;20456;-68
2024/04/09 02:03:20;;;;;;;25.30;7.17;;;20.90;90.10;;;;;;5424121;26;21254;-68
2024/04/09 02:05:46;;;;;;;25.43;6.97;;;20.90;90.30;;;;;;5466516;26;20274;-69
2024/04/09 02:08:12;;;;;;;19.10;6.37;;;20.80;90.30;;;;;;5460213;26;20461;-69
2024/04/09 02:10:37;;;;;;;25.27;6.43;;;20.70;90.40;;;;;;5459390;26;20750;-69
2024/04/09 02:13:03;;;;;;;15.83;5.70;;;20.50;90.60;;;;;;5465841;26;20338;-69
2024/04/09 02:15:29;;;;;;;18.73;7.27;;;20.50;91.00;;;;;;5455582;26;20342;-68
2024/04/09 02:17:55;;;;;;;25.87;7.70;;;20.40;91.00;;;;;;5466090;26;20250;-68
2024/04/09 02:20:23;;;;;;;26.33;7.90;;;20.40;91.00;;;;;;5455134;26;20959;-68
2024/04/09 02:22:49;;;;;;;17.77;7.00;;;20.30;91.20;;;;;;5425844;26;20539;-68
2024/04/09 02:25:15;;;;;;;21.73;6.97;;;20.30;91.30;;;;;;5461824;26;20599;-68
2024/04/09 02:27:40;;;;;;;21.40;5.90;;;20.30;91.40;;;;;;5468247;26;20252;-68
2024/04/09 02:30:09;;;;;;;24.70;7.10;;;20.30;91.40;;;;;;5455830;26;20989;-68
2024/04/09 02:32:36;;;;;;;17.23;7.27;;;20.20;91.40;;;;;;5468160;26;20992;-68
2024/04/09 02:35:04;;;;;;;20.93;7.60;;;20.30;91.50;;;;;;5458580;26;20962;-68
2024/04/09 02:37:31;;;;;;;20.50;7.90;;;20.30;91.40;;;;;;5461579;26;20464;-68
2024/04/09 02:39:58;;;;;;;22.83;5.93;;;20.30;91.50;;;;;;5476545;26;20499;-68
2024/04/09 02:42:25;;;;;;;22.43;7.40;;;20.30;91.50;;;;;;5479691;26;20464;-68
2024/04/09 02:44:50;;;;;;;20.97;6.13;;;20.30;91.40;;;;;;5478916;26;20498;-68
2024/04/09 02:47:16;;;;;;;21.60;6.50;;;20.40;91.60;;;;;;5484383;26;20832;-69
2024/04/09 02:49:43;;;;;;;28.80;7.53;;;20.30;91.10;;;;;;5453321;26;20318;-69
2024/04/09 02:52:09;;;;;;;17.30;7.00;;;20.40;91.10;;;;;;5476787;26;20863;-68
2024/04/09 02:54:35;;;;;;;23.87;6.20;;;20.40;91.00;;;;;;5453658;26;21115;-68
2024/04/09 02:57:01;;;;;;;26.60;8.23;;;20.30;91.50;;;;;;5487497;26;20471;-68
2024/04/09 02:59:26;;;;;;;18.83;6.60;;;20.30;91.90;;;;;;5481078;26;20241;-68
2024/04/09 03:01:52;;;;;;;24.03;7.33;;;20.20;91.90;;;;;;5434981;26;20293;-69
2024/04/09 03:04:18;;;;;;;14.77;6.77;;;20.20;92.30;;;;;;5477771;26;20226;-68
2024/04/09 03:06:43;;;;;;;16.23;7.23;;;20.20;92.60;;;;;;5490919;26;20234;-68
2024/04/09 03:09:10;;;;;;;30.67;9.40;;;20.10;92.80;;;;;;5471709;26;20561;-68
2024/04/09 03:11:36;;;;;;;31.60;12.63;;;20.20;93.00;;;;;;5483383;26;20308;-68
2024/04/09 03:14:06;;;;;;;23.70;7.93;;;20.10;93.30;;;;;;5485460;26;20816;-68
2024/04/09 03:16:32;;;;;;;14.70;6.27;;;20.10;93.60;;;;;;5487278;26;20466;-68
2024/04/09 03:18:59;;;;;;;18.67;6.20;;;20.10;93.90;;;;;;5480126;26;20835;-68
2024/04/09 03:21:24;;;;;;;23.47;7.53;;;20.10;94.20;;;;;;5474087;26;20223;-69
2024/04/09 03:23:50;;;;;;;14.97;7.13;;;20.10;94.40;;;;;;5484126;26;20479;-68
2024/04/09 03:26:16;;;;;;;20.30;7.87;;;20.10;94.80;;;;;;5485731;26;20233;-68
2024/04/09 03:28:41;;;;;;;15.97;7.30;;;20.00;95.20;;;;;;5478090;26;20331;-68
2024/04/09 03:31:08;;;;;;;24.67;6.17;;;20.00;95.70;;;;;;5471574;26;20345;-68
2024/04/09 03:33:34;;;;;;;20.97;7.03;;;20.00;96.10;;;;;;5489937;26;20222;-68
2024/04/09 03:36:02;;;;;;;22.03;6.63;;;19.90;96.30;;;;;;5479842;26;20660;-68
2024/04/09 03:38:28;;;;;;;17.57;5.63;;;19.80;96.40;;;;;;5487500;26;20979;-68
2024/04/09 03:40:59;;;;;;;20.50;5.40;;;19.70;96.10;;;;;;5486981;26;20451;-68
2024/04/09 03:43:25;;;;;;;15.87;5.43;;;19.70;96.20;;;;;;5454279;26;20266;-68
2024/04/09 03:46:03;;;;;;;21.60;6.47;;;19.80;96.10;;;;;;5477402;26;20456;-68
2024/04/09 03:48:29;;;;;;;17.57;5.80;;;19.80;96.00;;;;;;5481980;26;20976;-68
2024/04/09 03:50:55;;;;;;;13.67;6.50;;;19.70;95.80;;;;;;5484108;26;20490;-68
2024/04/09 03:53:20;;;;;;;17.67;5.80;;;19.80;95.40;;;;;;5489441;26;20581;-69
2024/04/09 03:56:00;;;;;;;23.23;5.70;;;19.70;95.50;;;;;;5489018;26;20355;-68
2024/04/09 03:58:38;;;;;;;10.00;4.53;;;19.70;95.20;;;;;;5485209;26;20533;-68
2024/04/09 04:01:04;;;;;;;9.10;4.90;;;19.70;95.00;;;;;;5472729;26;20565;-68
2024/04/09 04:03:31;;;;;;;14.33;4.63;;;19.70;94.90;;;;;;5462617;26;20504;-68
2024/04/09 04:05:58;;;;;;;20.63;4.63;;;19.80;93.90;;;;;;5465470;26;20604;-68
2024/04/09 04:08:31;;;;;;;12.80;4.53;;;19.90;93.10;;;;;;5432907;26;20461;-68
2024/04/09 04:11:07;;;;;;;7.30;4.10;;;19.90;92.80;;;;;;5469177;26;20448;-69
2024/04/09 04:13:34;;;;;;;9.87;4.10;;;19.90;92.40;;;;;;5483249;26;20508;-69
2024/04/09 04:16:09;;;;;;;14.43;3.80;;;19.80;92.00;;;;;;5480661;26;20459;-69
2024/04/09 04:18:43;;;;;;;9.10;3.90;;;19.80;91.80;;;;;;5469739;26;20580;-69
2024/04/09 04:21:12;;;;;;;14.07;4.07;;;19.80;91.60;;;;;;5447264;26;20536;-69
2024/04/09 04:23:38;;;;;;;8.30;3.00;;;19.80;91.70;;;;;;5469924;26;20452;-69
2024/04/09 04:26:07;;;;;;;6.93;3.07;;;19.80;91.70;;;;;;5462302;26;20513;-69
2024/04/09 04:28:35;;;;;;;13.77;3.30;;;19.90;91.50;;;;;;5472866;26;20455;-69
2024/04/09 04:31:08;;;;;;;11.17;3.37;;;19.80;91.50;;;;;;5485475;26;20463;-69
2024/04/09 04:33:35;;;;;;;8.43;3.27;;;19.90;91.50;;;;;;5476772;26;21253;-69
2024/04/09 04:36:01;;;;;;;8.33;2.90;;;19.90;92.00;;;;;;5471352;26;20467;-69
2024/04/09 04:38:27;;;;;;;11.70;3.30;;;19.80;91.60;;;;;;5481626;26;20529;-69
2024/04/09 04:40:52;;;;;;;4.23;2.60;;;19.80;91.70;;;;;;5478178;26;20948;-69
2024/04/09 04:43:18;;;;;;;7.43;3.40;;;19.80;91.80;;;;;;5468934;26;20507;-69
2024/04/09 04:45:44;;;;;;;6.67;2.60;;;19.80;92.00;;;;;;5470200;26;20239;-69
2024/04/09 04:48:10;;;;;;;7.57;3.53;;;19.80;92.20;;;;;;5472520;26;21096;-68
2024/04/09 04:50:37;;;;;;;10.20;2.97;;;19.70;92.30;;;;;;5485377;26;20462;-68
2024/04/09 04:53:03;;;;;;;9.93;3.57;;;19.60;92.70;;;;;;5481149;26;20535;-68
2024/04/09 04:55:29;;;;;;;8.97;3.53;;;19.40;93.20;;;;;;5482407;26;20650;-68
2024/04/09 04:57:55;;;;;;;6.40;2.70;;;19.40;93.60;;;;;;5477287;26;21154;-68
2024/04/09 05:00:21;;;;;;;4.60;2.43;;;19.40;93.80;;;;;;5424499;26;20551;-68
2024/04/09 05:02:48;;;;;;;9.03;3.90;;;19.30;94.10;;;;;;5467391;26;20223;-68
2024/04/09 05:05:14;;;;;;;6.33;2.60;;;19.20;94.20;;;;;;5460183;26;20457;-68
2024/04/09 05:07:39;;;;;;;7.63;3.00;;;19.20;94.50;;;;;;5466329;26;20511;-68
2024/04/09 05:10:12;;;;;;;5.33;3.10;;;19.30;94.60;;;;;;5464021;26;20464;-68
2024/04/09 05:12:39;;;;;;;10.93;3.37;;;19.20;94.90;;;;;;5463925;26;20271;-69
2024/04/09 05:15:06;;;;;;;6.13;2.33;;;19.10;95.70;;;;;;5460335;26;21063;-68
2024/04/09 05:17:32;;;;;;;6.30;3.30;;;18.90;96.50;;;;;;5467597;26;20449;-68
2024/04/09 05:19:57;;;;;;;8.80;3.10;;;18.90;97.10;;;;;;5438700;26;20456;-68
2024/04/09 05:22:24;;;;;;;8.03;2.77;;;18.80;97.50;;;;;;5463340;26;20351;-68
2024/04/09 05:24:51;;;;;;;9.63;3.10;;;18.70;98.10;;;;;;5463723;26;20278;-68
2024/04/09 05:27:17;;;;;;;6.17;2.97;;;18.60;98.70;;;;;;5455694;26;20548;-68
2024/04/09 05:29:43;;;;;;;4.47;2.57;;;18.70;99.10;;;;;;5430626;26;20452;-68
2024/04/09 05:32:09;;;;;;;9.33;2.70;;;18.70;99.50;;;;;;5464460;26;20468;-68
2024/04/09 05:34:34;;;;;;;9.00;3.20;;;18.50;99.90;;;;;;5469278;26;20348;-69
2024/04/09 05:37:00;;;;;;;5.40;2.83;;;18.60;99.90;;;;;;5437764;26;20290;-68
2024/04/09 05:39:25;;;;;;;7.33;2.70;;;18.60;99.90;;;;;;5463071;26;20253;-68
2024/04/09 05:41:51;;;;;;;12.90;3.10;;;18.60;99.90;;;;;;5470353;26;20230;-68
2024/04/09 05:44:17;;;;;;;5.63;2.60;;;18.60;99.90;;;;;;5456736;26;20348;-68
2024/04/09 05:46:42;;;;;;;7.43;2.80;;;18.60;99.90;;;;;;5464026;26;20257;-68
2024/04/09 05:49:08;;;;;;;5.03;2.97;;;18.70;99.90;;;;;;5466207;26;20290;-69
2024/04/09 05:51:34;;;;;;;7.17;2.40;;;18.70;99.90;;;;;;5463026;26;20654;-69
2024/04/09 05:53:59;;;;;;;6.60;2.63;;;18.60;99.90;;;;;;5461049;26;20339;-69
2024/04/09 05:56:25;;;;;;;4.40;2.70;;;18.60;99.90;;;;;;5451390;26;20286;-69
2024/04/09 05:58:51;;;;;;;9.93;3.00;;;18.50;99.90;;;;;;5469995;26;20231;-69
2024/04/09 06:01:16;;;;;;;6.27;2.40;;;18.50;99.90;;;;;;5465870;26;20754;-68
2024/04/09 06:03:42;;;;;;;7.93;2.40;;;18.30;99.90;;;;;;5466165;26;20279;-68
2024/04/09 06:06:08;;;;;;;4.20;2.50;;;18.30;99.90;;;;;;5471161;26;20265;-70
2024/04/09 06:08:33;;;;;;;6.03;2.30;;;18.40;99.90;;;;;;5468412;26;20747;-69
2024/04/09 06:11:01;;;;;;;4.50;2.30;;;18.30;99.90;;;;;;5459163;26;20716;-69
2024/04/09 06:13:26;;;;;;;4.07;2.00;;;18.20;99.90;;;;;;5434010;26;20319;-69
2024/04/09 06:15:52;;;;;;;3.40;2.13;;;18.10;99.90;;;;;;5462287;26;20480;-69
2024/04/09 06:18:17;;;;;;;8.23;2.30;;;18.10;99.90;;;;;;5464847;26;20235;-68
2024/04/09 06:20:45;;;;;;;7.63;2.30;;;18.00;99.90;;;;;;5461941;26;20582;-69
2024/04/09 06:23:10;;;;;;;5.77;2.00;;;17.90;99.90;;;;;;5460542;26;20334;-67
2024/04/09 06:25:36;;;;;;;4.43;2.33;;;17.80;99.90;;;;;;5469149;26;20477;-67
2024/04/09 06:28:03;;;;;;;7.10;2.00;;;17.70;99.90;;;;;;5466973;26;20239;-66
2024/04/09 06:30:28;;;;;;;7.17;2.40;;;17.50;99.90;;;;;;5464007;26;20949;-67
2024/04/09 06:32:54;;;;;;;2.97;2.10;;;17.60;99.90;;;;;;5458807;26;20506;-66
2024/04/09 06:35:20;;;;;;;3.07;1.73;;;17.60;99.90;;;;;;5472321;26;20309;-66
2024/04/09 06:37:46;;;;;;;3.10;1.97;;;17.40;99.90;;;;;;5472851;26;20679;-66
2024/04/09 06:40:11;;;;;;;3.00;2.20;;;17.40;99.90;;;;;;5442986;26;20477;-66
2024/04/09 06:42:37;;;;;;;2.70;2.20;;;17.40;99.90;;;;;;5465281;26;20223;-66
2024/04/09 06:45:03;;;;;;;3.73;2.00;;;17.10;99.90;;;;;;5486885;26;20288;-65
2024/04/09 06:47:29;;;;;;;2.97;2.20;;;17.00;99.90;;;;;;5471925;26;20277;-65
2024/04/09 06:49:56;;;;;;;3.00;2.10;;;17.00;99.90;;;;;;5464866;26;20464;-65
2024/04/09 06:52:21;;;;;;;2.50;2.00;;;16.90;99.90;;;;;;5468673;26;20478;-65
2024/04/09 06:54:47;;;;;;;4.03;2.13;;;16.80;99.90;;;;;;5438786;26;21181;-68
2024/04/09 06:57:13;;;;;;;2.30;1.93;;;16.80;99.90;;;;;;5473387;26;20230;-72
2024/04/09 06:59:38;;;;;;;5.00;1.70;;;16.80;99.90;;;;;;5478214;26;20520;-69
2024/04/09 07:02:04;;;;;;;2.10;1.60;;;16.70;99.90;;;;;;5478520;26;20277;-69
2024/04/09 07:04:30;;;;;;;4.60;1.60;;;16.80;99.90;;;;;;5456795;26;20269;-69
2024/04/09 07:06:56;;;;;;;2.00;1.60;;;16.80;99.90;;;;;;5469716;26;20235;-69
2024/04/09 07:09:22;;;;;;;4.77;1.80;;;16.80;99.90;;;;;;5458847;26;20462;-69
2024/04/09 07:11:47;;;;;;;4.70;1.70;;;16.70;99.90;;;;;;5469329;26;20240;-69
2024/04/09 07:14:14;;;;;;;3.10;1.40;;;16.70;99.90;;;;;;5420463;26;20465;-69
2024/04/09 07:16:41;;;;;;;2.70;1.50;;;16.40;99.90;;;;;;5466299;26;20278;-69
2024/04/09 07:19:07;;;;;;;2.77;1.60;;;16.30;99.90;;;;;;5467938;26;20470;-70
2024/04/09 07:21:33;;;;;;;6.83;1.60;;;16.30;99.90;;;;;;5477912;26;20584;-69
2024/04/09 07:23:58;;;;;;;2.30;1.60;;;16.20;99.90;;;;;;5474743;26;20250;-69
2024/04/09 07:26:24;;;;;;;3.10;1.70;;;16.00;99.90;;;;;;5465329;26;20313;-69
2024/04/09 07:28:51;;;;;;;6.40;1.60;;;16.00;99.90;;;;;;5477256;26;20292;-69
2024/04/09 07:31:17;;;;;;;2.30;1.60;;;15.90;99.90;;;;;;5476230;26;20227;-68
2024/04/09 07:33:42;;;;;;;2.53;1.60;;;15.60;99.90;;;;;;5488397;26;20581;-69
2024/04/09 07:36:08;;;;;;;2.60;1.60;;;15.60;99.90;;;;;;5472717;26;20282;-69
2024/04/09 07:38:33;;;;;;;2.30;1.50;;;15.50;99.90;;;;;;5469441;26;20269;-69
2024/04/09 07:40:59;;;;;;;2.00;1.57;;;15.40;99.90;;;;;;5466937;26;20622;-69
2024/04/09 07:43:25;;;;;;;2.20;1.57;;;15.50;99.90;;;;;;5452520;26;20219;-68
2024/04/09 07:45:54;;;;;;;2.33;1.70;;;15.50;99.90;;;;;;5467920;26;20241;-69
2024/04/09 07:48:19;;;;;;;4.93;1.90;;;15.40;99.90;;;;;;5476425;26;20473;-68
2024/04/09 07:50:45;;;;;;;5.70;1.90;;;15.30;99.90;;;;;;5466602;26;20448;-69
2024/04/09 07:53:11;;;;;;;2.43;1.80;;;15.20;99.90;;;;;;5474885;26;20593;-69
2024/04/09 07:55:37;;;;;;;3.27;1.53;;;15.20;99.90;;;;;;5465778;26;20274;-69
2024/04/09 07:58:03;;;;;;;2.00;1.60;;;15.20;99.90;;;;;;5473543;26;20795;-69
2024/04/09 08:00:29;;;;;;;3.60;1.60;;;15.20;99.90;;;;;;5470037;26;20223;-69
2024/04/09 08:02:55;;;;;;;3.40;2.07;;;15.10;99.90;;;;;;5467086;26;20463;-69
2024/04/09 08:05:22;;;;;;;7.60;2.37;;;15.20;99.90;;;;;;5468943;26;20293;-68
2024/04/09 08:07:48;;;;;;;5.80;2.50;;;15.20;99.90;;;;;;5466299;26;20461;-69
2024/04/09 08:10:18;;;;;;;2.10;1.60;;;15.20;99.90;;;;;;5457605;26;20553;-68
2024/04/09 08:12:49;;;;;;;2.30;1.70;;;15.10;99.90;;;;;;5471400;26;20277;-69
2024/04/09 08:15:18;;;;;;;3.27;2.00;;;15.10;99.90;;;;;;5455866;26;20558;-68
2024/04/09 08:17:44;;;;;;;2.67;1.80;;;15.20;99.90;;;;;;5471295;26;20499;-69
2024/04/09 08:20:10;;;;;;;3.13;1.90;;;15.10;99.90;;;;;;5466683;26;20449;-70
2024/04/09 08:22:39;;;;;;;4.00;1.80;;;15.20;99.90;;;;;;5462879;26;21778;-71
2024/04/09 08:25:05;;;;;;;3.67;2.00;;;15.20;99.90;;;;;;5472454;26;20508;-70
2024/04/09 08:27:36;;;;;;;3.70;1.80;;;15.20;99.90;;;;;;5462317;26;20468;-70
2024/04/09 08:30:04;;;;;;;3.60;1.93;;;15.10;99.90;;;;;;5469574;26;20811;-69
2024/04/09 08:32:31;;;;;;;5.33;2.07;;;14.90;99.90;;;;;;5469161;26;21097;-70
2024/04/09 08:34:56;;;;;;;4.63;2.00;;;14.90;99.90;;;;;;5459890;26;20465;-69
2024/04/09 08:37:22;;;;;;;5.87;2.03;;;14.80;99.90;;;;;;5457653;26;20506;-69
2024/04/09 08:39:55;;;;;;;3.03;1.57;;;14.70;99.90;;;;;;5438113;26;20262;-69
2024/04/09 08:42:22;;;;;;;2.67;1.93;;;14.70;99.90;;;;;;5470303;26;20481;-69
2024/04/09 08:44:51;;;;;;;4.37;2.00;;;14.60;99.90;;;;;;5464822;26;20452;-69
2024/04/09 08:47:26;;;;;;;2.70;2.00;;;14.50;99.90;;;;;;5466711;26;20445;-70
2024/04/09 08:49:55;;;;;;;6.50;2.07;;;14.20;99.90;;;;;;5462039;26;20454;-69
2024/04/09 08:52:23;;;;;;;3.20;2.07;;;14.20;99.90;;;;;;5460481;26;20466;-69
2024/04/09 08:54:49;;;;;;;5.10;2.23;;;14.20;99.90;;;;;;5466452;26;20574;-69
2024/04/09 08:57:15;;;;;;;3.37;2.70;;;14.10;99.90;;;;;;5458227;26;20448;-69
2024/04/09 08:59:41;;;;;;;4.33;2.70;;;14.00;99.90;;;;;;5460863;26;20796;-69
2024/04/09 09:02:14;;;;;;;4.47;2.57;;;14.00;99.90;;;;;;5470139;26;20314;-70
2024/04/09 09:04:42;;;;;;;4.90;2.50;;;13.90;99.90;;;;;;5461692;26;21399;-69
2024/04/09 09:07:18;;;;;;;4.20;2.60;;;13.80;99.90;;;;;;5467810;26;20504;-70
2024/04/09 09:09:45;;;;;;;3.30;2.77;;;13.90;99.90;;;;;;5458651;26;20449;-70
2024/04/09 09:12:11;;;;;;;4.70;3.97;;;14.00;99.90;;;;;;5468305;26;20547;-70
2024/04/09 09:14:37;;;;;;;4.97;2.50;;;14.20;99.90;;;;;;5457776;26;20581;-70
2024/04/09 09:17:04;;;;;;;3.03;2.13;;;14.30;99.90;;;;;;5467253;26;20448;-70
2024/04/09 09:19:34;;;;;;;4.00;2.07;;;14.10;99.90;;;;;;5465150;26;20550;-70
2024/04/09 09:22:07;;;;;;;3.13;2.27;;;14.20;99.90;;;;;;5458082;26;20572;-70
2024/04/09 09:24:34;;;;;;;4.10;2.20;;;14.20;99.90;;;;;;5463992;26;20505;-70
2024/04/09 09:27:03;;;;;;;3.40;2.10;;;14.20;99.90;;;;;;5461365;26;20570;-70
2024/04/09 09:29:29;;;;;;;3.80;2.00;;;13.80;99.90;;;;;;5451447;26;20453;-70
2024/04/09 09:31:55;;;;;;;2.23;1.80;;;13.70;99.90;;;;;;5459760;26;20476;-70
2024/04/09 09:34:41;;;;;;;2.93;2.10;;;13.70;99.90;;;;;;5463559;26;21103;-69
2024/04/09 09:37:08;;;;;;;4.90;2.50;;;13.70;99.90;;;;;;5468728;26;20331;-70
2024/04/09 09:39:41;;;;;;;4.10;2.50;;;13.80;99.90;;;;;;5462313;26;20589;-70
2024/04/09 09:42:09;;;;;;;3.93;2.20;;;13.70;99.90;;;;;;5456162;26;20502;-69
2024/04/09 09:44:41;;;;;;;3.73;2.10;;;13.40;99.90;;;;;;5467825;26;20444;-69
2024/04/09 09:47:07;;;;;;;4.13;2.20;;;13.20;99.90;;;;;;5467555;26;21498;-70
2024/04/09 09:49:34;;;;;;;4.50;2.20;;;13.00;99.90;;;;;;5460021;26;20496;-70
2024/04/09 09:52:00;;;;;;;6.10;2.33;;;13.10;99.90;;;;;;5471558;26;20527;-69
2024/04/09 09:54:29;;;;;;;4.90;2.83;;;13.00;99.90;;;;;;5460767;26;20913;-69
2024/04/09 09:57:05;;;;;;;3.53;1.90;;;12.70;99.90;;;;;;5465391;26;20660;-70
2024/04/09 09:59:55;;;;;;;2.80;2.07;;;12.80;99.90;;;;;;5461177;26;21913;-69
2024/04/09 10:02:23;;;;;;;3.27;2.27;;;12.80;99.90;;;;;;5459780;26;20512;-69
2024/04/09 10:04:48;;;;;;;4.40;1.87;;;12.80;99.90;;;;;;5455832;26;20455;-69
2024/04/09 10:07:16;;;;;;;3.60;1.87;;;12.90;99.90;;;;;;5463686;26;20578;-70
2024/04/09 10:09:49;;;;;;;4.40;2.10;;;12.90;99.90;;;;;;5462132;26;20265;-70
2024/04/09 10:12:31;;;;;;;6.90;2.30;;;12.90;99.90;;;;;;5455087;26;20515;-70
2024/04/09 10:15:08;;;;;;;6.60;2.10;;;12.80;99.90;;;;;;5465609;26;20475;-70
2024/04/09 10:17:47;;;;;;;9.00;2.27;;;12.90;99.90;;;;;;5454952;26;20504;-70
2024/04/09 10:20:26;;;;;;;4.20;2.27;;;12.70;99.90;;;;;;5469732;26;20578;-70
2024/04/09 10:22:53;;;;;;;4.80;2.60;;;12.50;99.90;;;;;;5454156;26;20507;-70
2024/04/09 10:25:23;;;;;;;4.97;2.10;;;12.60;99.90;;;;;;5458184;26;20453;-69
2024/04/09 10:28:03;;;;;;;3.00;1.80;;;12.60;99.90;;;;;;5463162;26;20472;-67
2024/04/09 10:30:31;;;;;;;2.10;1.70;;;12.50;99.90;;;;;;5415185;26;20467;-68
2024/04/09 10:32:59;;;;;;;5.70;2.00;;;12.60;99.90;;;;;;5463443;26;20520;-68
2024/04/09 10:35:25;;;;;;;2.53;2.20;;;12.60;99.90;;;;;;5468969;26;20461;-68
2024/04/09 10:37:52;;;;;;;2.43;2.00;;;12.60;99.90;;;;;;5453301;26;20526;-68
2024/04/09 10:40:18;;;;;;;3.03;1.97;;;12.70;99.90;;;;;;5463703;26;20257;-68
2024/04/09 10:42:44;;;;;;;6.50;2.77;;;12.80;99.90;;;;;;5461338;26;21008;-67
2024/04/09 10:45:10;;;;;;;2.60;1.90;;;12.80;99.90;;;;;;5464325;26;20479;-69
2024/04/09 10:47:37;;;;;;;4.23;2.73;;;12.70;99.90;;;;;;5458960;26;20569;-69
2024/04/09 10:50:03;;;;;;;6.30;2.57;;;12.60;99.90;;;;;;5437349;26;20460;-71
2024/04/09 10:52:29;;;;;;;3.20;2.03;;;12.60;99.90;;;;;;5463754;26;20536;-71
2024/04/09 10:54:55;;;;;;;2.30;1.73;;;12.50;99.90;;;;;;5467194;26;20613;-70
2024/04/09 10:57:21;;;;;;;4.40;2.10;;;12.40;99.90;;;;;;5470043;26;21018;-69
2024/04/09 10:59:46;;;;;;;3.13;2.00;;;12.50;99.90;;;;;;5458375;26;20273;-69
2024/04/09 11:02:13;;;;;;;3.30;1.80;;;12.30;99.90;;;;;;5458587;26;20776;-69
2024/04/09 11:04:40;;;;;;;2.77;2.03;;;12.20;99.90;;;;;;5456643;26;20347;-69
2024/04/09 11:07:09;;;;;;;4.27;2.23;;;12.10;99.90;;;;;;5471742;26;20469;-69
2024/04/09 11:09:35;;;;;;;4.17;1.90;;;12.30;99.90;;;;;;5456544;26;20452;-71
2024/04/09 11:12:01;;;;;;;3.90;2.10;;;12.40;99.90;;;;;;5462487;26;20926;-70
2024/04/09 11:14:27;;;;;;;3.00;2.07;;;12.40;99.90;;;;;;5465228;26;20285;-69
2024/04/09 11:16:53;;;;;;;4.93;1.90;;;12.40;99.90;;;;;;5462243;26;20512;-69
2024/04/09 11:19:20;;;;;;;3.00;2.00;;;12.30;99.90;;;;;;5465347;26;20468;-69
2024/04/09 11:21:46;;;;;;;3.20;2.20;;;12.30;99.90;;;;;;5455779;26;20239;-69
2024/04/09 11:24:12;;;;;;;4.77;2.33;;;12.40;99.90;;;;;;5454687;26;20814;-69
2024/04/09 11:26:41;;;;;;;4.20;2.20;;;12.40;99.90;;;;;;5464262;26;20761;-70
2024/04/09 11:29:21;;;;;;;2.90;2.00;;;12.30;99.90;;;;;;5461597;26;20466;-68
2024/04/09 11:31:47;;;;;;;2.30;1.90;;;12.30;99.90;;;;;;5448944;26;20510;-70
2024/04/09 11:34:26;;;;;;;3.20;1.50;;;12.30;99.90;;;;;;5450279;26;20964;-69
2024/04/09 11:36:53;;;;;;;2.40;1.90;;;12.30;99.90;;;;;;5459930;26;20354;-69
2024/04/09 11:39:22;;;;;;;3.47;1.90;;;12.30;99.90;;;;;;5468128;26;20572;-70
2024/04/09 11:41:49;;;;;;;6.20;2.50;;;12.40;99.90;;;;;;5466369;26;20452;-69
2024/04/09 11:44:22;;;;;;;2.90;1.90;;;12.40;99.90;;;;;;5454880;26;20546;-69
2024/04/09 11:46:48;;;;;;;5.53;2.20;;;12.40;99.90;;;;;;5460411;26;20894;-69
2024/04/09 11:49:13;;;;;;;3.40;2.20;;;12.40;99.90;;;;;;5460241;26;20464;-69
2024/04/09 11:51:42;;;;;;;2.47;1.80;;;12.50;99.90;;;;;;5460683;26;20231;-70
2024/04/09 11:54:08;;;;;;;2.63;1.80;;;12.50;99.90;;;;;;5466490;26;20278;-70
2024/04/09 11:56:38;;;;;;;2.20;1.80;;;12.50;99.90;;;;;;5456934;26;20450;-69
2024/04/09 11:59:07;;;;;;;3.13;1.77;;;12.50;99.90;;;;;;5464762;26;20468;-70
2024/04/09 12:01:33;;;;;;;2.10;1.90;;;12.50;99.90;;;;;;5466835;26;20473;-69
2024/04/09 12:03:59;;;;;;;3.80;2.07;;;12.70;99.90;;;;;;5459734;26;20454;-70
2024/04/09 12:06:25;;;;;;;2.40;1.77;;;12.70;99.90;;;;;;5473017;26;21120;-70
2024/04/09 12:08:53;;;;;;;2.00;1.70;;;12.80;99.90;;;;;;5467135;26;20456;-70
2024/04/09 12:11:18;;;;;;;3.00;1.83;;;12.70;99.90;;;;;;5461054;26;20572;-71
2024/04/09 12:13:44;;;;;;;3.10;2.10;;;12.70;99.90;;;;;;5429699;26;20516;-70
2024/04/09 12:16:10;;;;;;;3.03;1.60;;;12.80;99.90;;;;;;5466079;26;20461;-69
2024/04/09 12:18:35;;;;;;;2.20;1.90;;;12.80;99.90;;;;;;5467158;26;20713;-70
2024/04/09 12:21:02;;;;;;;5.80;1.90;;;12.80;99.90;;;;;;5461330;26;20745;-69
2024/04/09 12:23:27;;;;;;;2.63;1.70;;;12.70;99.90;;;;;;5470256;26;20304;-69
2024/04/09 12:25:54;;;;;;;2.10;1.90;;;12.60;99.90;;;;;;5462561;26;20468;-70
2024/04/09 12:28:20;;;;;;;1.80;1.50;;;12.60;99.90;;;;;;5463397;26;20279;-70
2024/04/09 12:30:45;;;;;;;2.40;1.90;;;12.70;99.90;;;;;;5458367;26;21038;-70
2024/04/09 12:33:11;;;;;;;2.30;1.80;;;12.70;99.90;;;;;;5469518;26;20862;-70
2024/04/09 12:35:37;;;;;;;2.10;1.77;;;12.70;99.90;;;;;;5462871;26;20231;-70
2024/04/09 12:38:03;;;;;;;2.93;1.70;;;12.70;99.90;;;;;;5464222;26;20283;-69
2024/04/09 12:40:28;;;;;;;3.07;1.77;;;12.70;99.90;;;;;;5464674;26;20346;-69
2024/04/09 12:42:54;;;;;;;5.70;2.27;;;12.80;99.90;;;;;;5463869;26;20464;-69